Flight Track Log - Related Links

Times and Time Zones

All times are in EDT time to prevent confusion due to time zone crossing. See the BJS542 flight status page for this flight to view local times or setup timezone preferences in your user account.

Time Position Orientation Groundspeed Altitude Reporting Facility
EDT Latitude Longitude Course Direction KTS MPH feet Rate Location/Type
Fri 07:00:23 PM 38.8167 -77.4500 189° South 268 308 6,800  Level Potomac TRACON
Fri 07:02:41 PM 38.6378 -77.4972 192° South 310 357 14,700 2,667 Climbing Washington Center
Fri 07:03:41 PM 38.5372 -77.5267 193° South 346 398 15,600 1,576 Climbing Washington Center
Fri 07:04:39 PM 38.4344 -77.5583 194° South 369 425 17,800 2,390 Climbing Washington Center
Fri 07:05:39 PM 38.3458 -77.6303 212° Southwest 375 432 20,300 2,508 Climbing Washington Center
Fri 07:06:41 PM 38.2586 -77.7203 219° Southwest 388 447 22,900 2,656 Climbing Washington Center
Fri 07:07:41 PM 38.1608 -77.8206 219° Southwest 401 461 25,700 2,727 Climbing Washington Center
Fri 07:08:42 PM 38.0758 -77.9078 219° Southwest 406 467 28,400 1,664 Climbing Washington Center
Fri 07:09:40 PM 37.9928 -78.0000 221° Southwest 406 467 29,000 305 Climbing Washington Center
Fri 07:10:40 PM 37.9011 -78.0944 219° Southwest 411 473 29,000 397 Level Washington Center
Fri 07:11:41 PM 37.8219 -78.1811 221° Southwest 411 473 29,800 1,289 Climbing Washington Center
Fri 07:12:41 PM 37.7389 -78.2678 220° Southwest 411 473 31,600 1,831 Climbing Washington Center
Fri 07:13:39 PM 37.6514 -78.3564 219° Southwest 411 473 33,400 1,815 Climbing Washington Center
Fri 07:14:40 PM 37.5678 -78.4450 220° Southwest 411 473 35,200 2,213 Climbing Washington Center
Fri 07:15:41 PM 37.4758 -78.5386 219° Southwest 406 467 37,900 1,932 Climbing Washington Center
Fri 07:16:38 PM 37.3947 -78.6189 218° Southwest 394 453 39,000 559 Climbing Washington Center
Fri 07:17:39 PM 37.3089 -78.7069 219° Southwest 394 453 39,000 49 Level Washington Center
Fri 07:18:40 PM 37.2231 -78.7947 219° Southwest 394 453 39,100 694 Climbing Washington Center
Fri 07:19:40 PM 37.1375 -78.8772 218° Southwest 394 453 40,400 1,311 Climbing Washington Center
Fri 07:20:39 PM 37.0644 -78.9522 219° Southwest 394 453 41,700 1,100 Climbing Washington Center
Fri 07:21:40 PM 36.9808 -79.0369 219° Southwest 388 447 42,600 645 Climbing Washington Center
Fri 07:22:40 PM 36.9011 -79.1217 220° Southwest 388 447 43,000 198 Climbing Washington Center
Fri 07:23:41 PM 36.8150 -79.2058 218° Southwest 388 447 43,000 545 Level Washington Center
Fri 07:24:41 PM 36.7225 -79.3028 220° Southwest 394 453 44,100 966 Climbing Washington Center
Fri 07:25:39 PM 36.6383 -79.3867 219° Southwest 389 448 44,900 283 Climbing Washington Center
Fri 07:27:52 PM 36.4544 -79.5656 218° Southwest 392 451 45,000 31 Climbing Atlanta Center
Fri 07:28:52 PM 36.3697 -79.6503 219° Southwest 402 463 45,000  Level Atlanta Center
Fri 07:29:52 PM 36.2772 -79.7428 219° Southwest 412 474 45,000  Level Atlanta Center
Fri 07:30:52 PM 36.1906 -79.8297 219° Southwest 412 474 45,000  Level Atlanta Center
Fri 07:31:52 PM 36.0897 -79.9303 219° Southwest 417 480 45,000  Level Atlanta Center
Fri 07:32:52 PM 35.9897 -80.0019 210° Southwest 417 480 45,000  Level Atlanta Center
Fri 07:33:52 PM 35.8806 -80.0433 197° South 417 480 45,000  Level Atlanta Center
Fri 07:34:52 PM 35.7608 -80.0797 194° South 423 487 45,000  Level Atlanta Center
Fri 07:35:52 PM 35.6494 -80.1183 196° South 429 494 45,000  Level Atlanta Center
Fri 07:36:52 PM 35.5339 -80.1572 195° South 429 494 45,000  Level Atlanta Center
Fri 07:37:52 PM 35.4181 -80.1958 195° South 429 494 45,000  Level Atlanta Center
Fri 07:38:52 PM 35.3147 -80.2261 193° South 434 499 45,000  Level Atlanta Center
Fri 07:40:42 PM 35.1008 -80.2944 195° South 439 505 45,000  Level Jacksonville Center
Fri 07:41:42 PM 34.9808 -80.3364 196° South 427 491 45,000  Level Jacksonville Center
Fri 07:42:42 PM 34.8750 -80.3672 193° South 422 486 45,000  Level Jacksonville Center
Fri 07:43:42 PM 34.7694 -80.4031 196° South 422 486 45,000  Level Jacksonville Center
Fri 07:44:42 PM 34.6619 -80.4592 203° Southwest 417 480 45,000  Level Jacksonville Center
Fri 07:45:42 PM 34.5589 -80.5153 204° Southwest 412 474 45,000  Level Jacksonville Center
Fri 07:46:42 PM 34.4533 -80.5683 203° Southwest 412 474 45,000  Level Jacksonville Center
Fri 07:47:42 PM 34.3481 -80.6242 204° Southwest 417 480 45,000  Level Jacksonville Center
Fri 07:48:42 PM 34.2428 -80.6794 203° Southwest 417 480 45,000  Level Jacksonville Center
Fri 07:49:42 PM 34.1350 -80.7350 203° Southwest 417 480 45,000  Level Jacksonville Center
Fri 07:50:42 PM 34.0297 -80.7903 204° Southwest 417 480 45,000  Level Jacksonville Center
Fri 07:51:42 PM 33.9242 -80.8478 204° Southwest 417 480 45,000  Level Jacksonville Center
Fri 07:52:42 PM 33.8186 -80.9003 202° Southwest 417 480 45,000  Level Jacksonville Center
Fri 07:53:42 PM 33.7131 -80.9575 204° Southwest 417 480 45,000  Level Jacksonville Center
Fri 07:54:42 PM 33.6053 -81.0097 202° Southwest 417 480 45,000  Level Jacksonville Center
Fri 07:55:42 PM 33.4997 -81.0669 204° Southwest 417 480 45,000  Level Jacksonville Center
Fri 07:56:42 PM 33.3942 -81.1211 203° Southwest 417 480 45,000  Level Jacksonville Center
Fri 07:57:42 PM 33.2842 -81.1756 202° Southwest 417 480 45,000  Level Jacksonville Center
Fri 07:58:42 PM 33.1786 -81.2322 204° Southwest 417 480 45,000 -50 Level Jacksonville Center
Fri 07:59:42 PM 33.0706 -81.2864 203° Southwest 417 480 44,900  Descending Jacksonville Center
Fri 08:00:42 PM 32.9628 -81.3403 203° Southwest 417 480 45,000 50 Climbing Jacksonville Center
Fri 08:01:42 PM 32.8569 -81.3939 203° Southwest 417 480 45,000  Level Jacksonville Center
Fri 08:02:42 PM 32.7469 -81.4500 203° Southwest 417 480 45,000  Level Jacksonville Center
Fri 08:03:42 PM 32.6308 -81.5086 203° Southwest 422 486 45,000  Level Jacksonville Center
Fri 08:04:42 PM 32.5333 -81.5594 204° Southwest 415 478 45,000  Level Jacksonville Center
Fri 08:05:42 PM 32.4128 -81.6203 203° Southwest 420 483 45,000  Level Jacksonville Center
Fri 08:06:42 PM 32.3108 -81.6514 194° South 425 489 45,000  Level Jacksonville Center
Fri 08:07:42 PM 32.1794 -81.6850 192° South 437 503 45,000  Level Jacksonville Center
Fri 08:08:42 PM 32.0608 -81.7158 192° South 430 495 45,000  Level Jacksonville Center
Fri 08:09:42 PM 31.9400 -81.7444 191° South 441 507 45,000 -200 Level Jacksonville Center
Fri 08:10:42 PM 31.8256 -81.7750 193° South 435 501 44,600 -700 Descending Jacksonville Center
Fri 08:11:42 PM 31.7192 -81.8008 192° South 435 501 43,600 -1,100 Descending Jacksonville Center
Fri 08:12:42 PM 31.5900 -81.8342 192° South 429 494 42,400 -1,150 Descending Jacksonville Center
Fri 08:13:42 PM 31.4733 -81.8622 192° South 429 494 41,300 -1,050 Descending Jacksonville Center
Fri 08:14:42 PM 31.3669 -81.8878 192° South 429 494 40,300 -650 Descending Jacksonville Center
Fri 08:15:42 PM 31.2525 -81.9206 194° South 429 494 40,000 -150 Descending Jacksonville Center
Fri 08:16:42 PM 31.1358 -81.9508 193° South 429 494 40,000  Level Jacksonville Center
Fri 08:17:42 PM 31.0150 -81.9811 192° South 434 499 40,000  Level Jacksonville Center
Fri 08:18:42 PM 30.8961 -82.0089 191° South 434 499 40,000  Level Jacksonville Center
Fri 08:19:42 PM 30.7753 -82.0414 193° South 440 506 40,000  Level Jacksonville Center
Fri 08:20:42 PM 30.6522 -82.0717 192° South 445 512 40,000  Level Jacksonville Center
Fri 08:21:42 PM 30.5292 -82.0919 188° South 445 512 40,000  Level Jacksonville Center
Fri 08:22:42 PM 30.4061 -82.1242 193° South 445 512 40,000  Level Jacksonville Center
Fri 08:23:42 PM 30.2789 -82.1564 192° South 450 518 40,000 -200 Level Jacksonville Center
Fri 08:24:42 PM 30.1539 -82.1864 192° South 455 524 39,600 -750 Descending Jacksonville Center
Fri 08:25:42 PM 30.0122 -82.2258 194° South 460 529 38,500 -1,050 Descending Jacksonville Center
Fri 08:26:42 PM 29.8869 -82.2578 192° South 467 537 37,500 -1,000 Descending Jacksonville Center
Fri 08:27:42 PM 29.7597 -82.2897 192° South 467 537 36,500 -950 Descending Jacksonville Center
Fri 08:28:42 PM 29.6450 -82.3119 190° South 467 537 35,600 -750 Descending Jacksonville Center
Fri 08:29:42 PM 29.5158 -82.3269 186° South 467 537 35,000 -300 Descending Jacksonville Center
Fri 08:30:42 PM 29.3822 -82.3253 179° South 472 543 35,000  Level Jacksonville Center
Fri 08:31:42 PM 29.2506 -82.3236 179° South 477 549 35,000  Level Jacksonville Center
Fri 08:32:42 PM 29.1192 -82.3222 179° South 477 549 35,000  Level Jacksonville Center
Fri 08:33:42 PM 28.9875 -82.3181 178° South 477 549 35,000  Level Jacksonville Center
Fri 08:34:42 PM 28.8414 -82.3214 181° South 477 549 35,000  Level Jacksonville Center
Fri 08:35:42 PM 28.7100 -82.3172 178° South 477 549 35,000  Level Jacksonville Center
Fri 08:36:42 PM 28.5764 -82.3158 179° South 477 549 35,000  Level Jacksonville Center
Fri 08:37:42 PM 28.4428 -82.3142 179° South 477 549 35,000  Level Jacksonville Center
Fri 08:39:36 PM 28.2033 -82.3100 179° South 504 580 35,000  Level Miami Center
Fri 08:40:36 PM 28.0575 -82.3075 179° South 488 562 35,000  Level Miami Center
Fri 08:41:36 PM 27.9253 -82.2731 167° South 488 562 35,000  Level Miami Center
Fri 08:42:36 PM 27.8222 -82.2375 163° South 488 562 35,000 -400 Level Miami Center
Fri 08:43:36 PM 27.6678 -82.1858 163° South 479 551 34,200 -1,050 Descending Miami Center
Fri 08:44:36 PM 27.5358 -82.1375 162° South 491 565 32,900 -1,600 Descending Miami Center
Fri 08:45:36 PM 27.4081 -82.0942 163° South 496 571 31,000 -1,950 Descending Miami Center
Fri 08:46:36 PM 27.2969 -82.0564 163° South 474 545 29,000 -1,950 Descending Miami Center
Fri 08:47:36 PM 27.1731 -82.0158 164° South 467 537 27,100 -2,050 Descending Miami Center
Fri 08:48:36 PM 27.0431 -81.9728 164° South 451 519 24,900 -1,550 Descending Miami Center
Fri 08:49:36 PM 26.9297 -81.9353 164° South 445 512 24,000 -850 Descending Miami Center
Fri 08:50:36 PM 26.8406 -81.8522 140° Southeast 424 488 23,200 -1,500 Descending Miami Center
Fri 08:51:36 PM 26.7581 -81.7606 135° Southeast 411 473 21,000 -2,100 Descending Miami Center
Fri 08:52:36 PM 26.6925 -81.6647 127° Southeast 388 447 19,000 -1,000 Descending Miami Center
Fri 08:53:36 PM 26.7067 -81.5467 82° East 348 400 19,000  Level Miami Center
Fri 08:54:36 PM 26.7378 -81.4294 73° East 357 411 19,000 -500 Level Miami Center
Fri 08:55:36 PM 26.7664 -81.3094 75° East 382 440 18,000 -1,500 Descending Miami Center
Fri 08:56:36 PM 26.7928 -81.1989 75° East 398 458 16,000 -2,050 Descending Miami Center
Fri 08:57:36 PM 26.8169 -81.0858 77° East 387 445 13,900 -2,050 Descending Miami Center
Fri 08:58:36 PM 26.8289 -80.9653 84° East 364 419 11,900 -1,800 Descending Miami Center
Fri 08:59:36 PM 26.8356 -80.8678 86° East 328 377 10,300 -950 Descending Miami Center
Fri 09:00:36 PM 26.8147 -80.7903 107° East 294 338 10,000 -500 Descending Miami Center
Fri 09:01:36 PM 26.7778 -80.6958 114° Southeast 286 329 9,300 -950 Descending Miami Center
Fri 09:02:36 PM 26.7503 -80.6253 114° Southeast 285 328 8,100 -1,200 Descending Miami Center
Fri 09:03:36 PM 26.7172 -80.5336 112° Southeast 278 320 6,900 -1,200 Descending Miami Center
Fri 09:04:36 PM 26.6981 -80.4608 106° East 278 320 5,700 -1,700 Descending Miami Center
Fri 09:05:36 PM 26.6919 -80.3700 94° East 266 306 3,500 -1,350 Descending Miami Center
Fri 09:06:36 PM 26.6894 -80.3025 92° East 252 290 3,000 -500 Descending Miami Center
Fri 09:08:00 PM 26.5933 -80.1851 53° Northeast  Level FlightAware
Fri 09:15:00 PM 26.6667 -80.0833 50° Northeast  Level FlightAware
Fri 09:16:00 PM 26.6832 -80.0956 50° Northeast  Level Estimated
Fri 09:17:00 PM 26.6832 -80.0956 50° Northeast  Level Estimated
Fri 09:18:00 PM 26.6832 -80.0956 50° Northeast  Level Estimated

Login

Don't have an account? Register now (free) for customized features, flight alerts, and more!